Flight Track Log - Related Links

Times and Time Zones

All times are in EDT time to prevent confusion due to time zone crossing. See the NKS406 flight status page for this flight to view local times or setup timezone preferences in your user account.

Time Position Orientation Groundspeed Altitude Reporting Facility
EDT Latitude Longitude Course Direction KTS MPH feet Rate Location/Type
Sun 09:10:31 AM 32.8680 -97.0310 183° South 183 211 1,600  Level FlightAware ADS-B
Sun 09:10:41 AM 32.8590 -97.0310 180° South 187 215 2,000 1,543 Climbing FlightAware ADS-B
Sun 09:11:41 AM 32.7970 -97.0300 179° South 265 305 3,400 1,644 Climbing FlightAware ADS-B
Sun 09:11:54 AM 32.7810 -97.0290 177° South 275 316 4,000 3,257 Climbing FlightAware ADS-B
Sun 09:12:16 AM 32.7530 -97.0280 178° South 274 315 5,300 3,684 Climbing FlightAware ADS-B
Sun 09:12:51 AM 32.7070 -97.0300 182° South 275 316 7,500 3,702 Climbing FlightAware ADS-B
Sun 09:13:03 AM 32.6920 -97.0300 180° South 275 316 8,200 3,316 Climbing FlightAware ADS-B
Sun 09:13:29 AM 32.6590 -97.0320 183° South 276 318 9,600 2,833 Climbing FlightAware ADS-B
Sun 09:14:15 AM 32.5980 -97.0390 186° South 299 344 11,600 2,963 Climbing FlightAware ADS-B
Sun 09:14:50 AM 32.5520 -97.0500 191° South 293 337 13,600 2,786 Climbing FlightAware ADS-B
Sun 09:15:11 AM 32.5250 -97.0430 168° South 307 353 14,200 1,279 Climbing FlightAware ADS-B
Sun 09:15:51 AM 32.4660 -97.0190 161° South 348 400 14,900 1,129 Climbing FlightAware ADS-B
Sun 09:16:36 AM 32.3930 -96.9920 163° South 378 435 15,800 1,643 Climbing FlightAware ADS-B
Sun 09:17:15 AM 32.3240 -96.9730 167° South 386 444 17,200 2,118 Climbing FlightAware ADS-B
Sun 09:18:01 AM 32.2440 -96.9542 169° South 389 448 18,800 2,684 Climbing FlightAware ADS-B
Sun 09:18:31 AM 32.1916 -96.9472 174° South 373 429 20,600 3,231 Climbing FlightAware ADS-B
Sun 09:18:40 AM 32.1752 -96.9439 170° South 372 428 20,900 1,600 Climbing FlightAware ADS-B
Sun 09:19:16 AM 32.1160 -96.9197 161° South 386 444 21,800 1,612 Climbing FlightAware ADS-B
Sun 09:19:47 AM 32.0664 -96.8916 154° Southeast 388 447 22,700 1,750 Climbing FlightAware ADS-B
Sun 09:20:28 AM 31.9982 -96.8545 155° Southeast 388 447 23,900 1,417 Climbing FlightAware ADS-B
Sun 09:20:59 AM 31.9477 -96.8255 154° Southeast 404 465 24,400 1,338 Climbing FlightAware ADS-B
Sun 09:23:05 AM 31.7315 -96.7023 154° Southeast 420 483 27,400 1,113 Climbing FlightAware ADS-B
Sun 09:25:07 AM 31.5067 -96.5747 154° Southeast 466 536 29,000 824 Climbing FlightAware ADS-B
Sun 09:25:38 AM 31.4476 -96.5412 154° Southeast 471 542 29,500 1,038 Climbing FlightAware ADS-B
Sun 09:25:59 AM 31.4059 -96.5176 154° Southeast 475 547 29,900 1,333 Climbing FlightAware ADS-B
Sun 09:26:59 AM 31.2863 -96.4503 154° Southeast 473 544 31,300 1,141 Climbing FlightAware ADS-B
Sun 09:28:21 AM 31.1191 -96.3646 160° South 485 558 32,600 960 Climbing FlightAware ADS-B
Sun 09:28:39 AM 31.0810 -96.3481 157° South 482 555 32,900 1,000 Climbing FlightAware ADS-B
Sun 09:28:57 AM 31.0475 -96.3260 149° Southeast 479 551 33,200 1,125 Climbing FlightAware ADS-B
Sun 09:29:27 AM 30.9948 -96.2789 143° Southeast 475 547 33,800 913 Climbing FlightAware ADS-B
Sun 09:30:29 AM 30.8856 -96.1809 142° Southeast 482 555 34,600 783 Climbing FlightAware ADS-B
Sun 09:30:59 AM 30.8320 -96.1323 142° Southeast 485 558 35,000 787 Climbing FlightAware ADS-B
Sun 09:31:30 AM 30.7785 -96.0836 142° Southeast 483 556 35,400 1,304 Climbing FlightAware ADS-B
Sun 09:32:31 AM 30.6747 -95.9896 142° Southeast 464 534 37,000 1,055 Climbing FlightAware ADS-B
Sun 09:33:01 AM 30.6239 -95.9434 142° Southeast 461 531 37,000  Level FlightAware ADS-B
Sun 09:33:35 AM 30.5661 -95.8895 138° Southeast 463 533 37,000  Level FlightAware ADS-B
Sun 09:33:40 AM 30.5599 -95.8820 134° Southeast 463 533 37,000  Level FlightAware ADS-B
Sun 09:33:56 AM 30.5394 -95.8495 124° Southeast 458 527 37,000  Level FlightAware ADS-B
Sun 09:34:04 AM 30.5316 -95.8318 117° Southeast 454 522 37,000  Level FlightAware ADS-B
Sun 09:34:16 AM 30.5230 -95.8050 110° East 450 518 37,000  Level FlightAware ADS-B
Sun 09:34:28 AM 30.5176 -95.7774 101° East 448 516 37,000  Level FlightAware ADS-B
Sun 09:34:36 AM 30.5159 -95.7587 96° East 448 516 37,000  Level FlightAware ADS-B
Sun 09:35:12 AM 30.5170 -95.6709 89° East 446 513 37,000  Level FlightAware ADS-B
Sun 09:35:43 AM 30.5179 -95.5968 89° East 448 516 37,000  Level FlightAware ADS-B
Sun 09:36:45 AM 30.5197 -95.4500 89° East 450 518 37,000  Level FlightAware ADS-B
Sun 09:37:46 AM 30.5214 -95.3026 89° East 455 524 37,000 28 Level FlightAware ADS-B
Sun 09:40:18 AM 30.5229 -94.9270 90° East 459 528 37,100  Climbing FlightAware ADS-B
Sun 09:40:49 AM 30.5234 -94.8529 90° East 457 526 37,000 -98 Descending FlightAware ADS-B
Sun 09:41:19 AM 30.5237 -94.7773 90° East 456 525 37,000  Level FlightAware ADS-B
Sun 09:42:39 AM 30.5239 -94.5839 90° East 456 525 37,000  Level FlightAware ADS-B
Sun 09:43:09 AM 30.5239 -94.5106 90° East 455 524 37,000  Level FlightAware ADS-B
Sun 09:43:40 AM 30.5239 -94.4348 90° East 454 522 37,000  Level FlightAware ADS-B
Sun 09:46:12 AM 30.5233 -94.0660 90° East 456 525 37,000  Level FlightAware ADS-B
Sun 09:46:42 AM 30.5231 -93.9919 90° East 457 526 37,000  Level FlightAware ADS-B
Sun 09:47:43 AM 30.5224 -93.8432 90° East 458 527 37,000  Level FlightAware ADS-B
Sun 09:49:13 AM 30.5211 -93.6215 90° East 456 525 37,000  Level FlightAware ADS-B
Sun 09:49:43 AM 30.5206 -93.5483 90° East 455 524 37,000  Level FlightAware ADS-B
Sun 09:50:44 AM 30.5197 -93.4018 90° East 453 521 37,000  Level FlightAware ADS-B
Sun 09:51:14 AM 30.5191 -93.3280 91° East 454 522 37,000 -98 Level FlightAware ADS-B
Sun 09:51:45 AM 30.5183 -93.2544 91° East 456 525 36,900  Descending FlightAware ADS-B
Sun 09:52:16 AM 30.5175 -93.1787 91° East 457 526 37,000 98 Climbing FlightAware ADS-B
Sun 09:52:46 AM 30.5166 -93.1048 91° East 458 527 37,000  Level FlightAware ADS-B
Sun 09:53:16 AM 30.5158 -93.0292 91° East 462 532 37,000  Level FlightAware ADS-B
Sun 09:53:47 AM 30.5151 -92.9520 91° East 464 534 37,000  Level FlightAware ADS-B
Sun 09:54:18 AM 30.5141 -92.8770 91° East 465 535 37,000  Level FlightAware ADS-B
Sun 09:54:48 AM 30.5132 -92.8023 91° East 465 535 37,000  Level FlightAware ADS-B
Sun 09:55:19 AM 30.5121 -92.7237 91° East 465 535 37,000  Level FlightAware ADS-B
Sun 09:55:50 AM 30.5111 -92.6487 91° East 465 535 37,000  Level FlightAware ADS-B
Sun 09:56:20 AM 30.5100 -92.5718 91° East 466 536 37,000  Level FlightAware ADS-B
Sun 09:56:51 AM 30.5089 -92.4964 91° East 465 535 37,000  Level FlightAware ADS-B
Sun 09:57:22 AM 30.5076 -92.4184 91° East 464 534 37,000  Level FlightAware ADS-B
Sun 09:57:53 AM 30.5063 -92.3425 91° East 463 533 37,000  Level FlightAware ADS-B
Sun 09:58:28 AM 30.5050 -92.2559 91° East 464 534 37,000 -91 Level FlightAware ADS-B
Sun 09:58:59 AM 30.5037 -92.1781 91° East 465 535 36,900  Descending FlightAware ADS-B
Sun 09:59:29 AM 30.5023 -92.1027 91° East 467 537 37,000 98 Climbing FlightAware ADS-B
Sun 10:00:00 AM 30.5008 -92.0267 91° East 470 541 37,000  Level FlightAware ADS-B
Sun 10:00:30 AM 30.4994 -91.9503 91° East 473 544 37,000  Level FlightAware ADS-B
Sun 10:01:01 AM 30.4980 -91.8711 91° East 475 547 37,000  Level FlightAware ADS-B
Sun 10:01:35 AM 30.4961 -91.7843 91° East 476 548 37,000  Level FlightAware ADS-B
Sun 10:01:48 AM 30.4947 -91.7516 93° East 475 547 37,000  Level FlightAware ADS-B
Sun 10:02:01 AM 30.4914 -91.7179 96° East 473 544 37,000 158 Level FlightAware ADS-B
Sun 10:02:26 AM 30.4744 -91.6599 109° East 465 535 37,100  Climbing FlightAware ADS-B
Sun 10:02:51 AM 30.4528 -91.6025 114° Southeast 466 536 37,000 -107 Descending FlightAware ADS-B
Sun 10:03:22 AM 30.4284 -91.5319 112° Southeast 467 537 37,000  Level FlightAware ADS-B
Sun 10:03:52 AM 30.4042 -91.4623 112° Southeast 462 532 37,000  Level FlightAware ADS-B
Sun 10:04:27 AM 30.3758 -91.3827 112° Southeast 461 531 37,000  Level FlightAware ADS-B
Sun 10:04:59 AM 30.3501 -91.3110 113° Southeast 457 526 37,000  Level FlightAware ADS-B
Sun 10:05:31 AM 30.3237 -91.2375 113° Southeast 455 524 37,000  Level FlightAware ADS-B
Sun 10:08:21 AM 30.2675 -90.8375 99° East 464 534 37,000 28 Level FlightAware ADS-B
Sun 10:09:02 AM 30.2741 -90.7364 86° East 464 534 37,100  Climbing FlightAware ADS-B
Sun 10:09:33 AM 30.2794 -90.6610 85° East 460 529 37,000 -72 Descending FlightAware ADS-B
Sun 10:10:25 AM 30.2870 -90.5540 85° East 458 527 37,000  Level FlightAware ADS-B
Sun 10:11:39 AM 30.2960 -90.4170 86° East 456 525 37,000  Level FlightAware ADS-B
Sun 10:12:21 AM 30.3060 -90.2550 86° East 452 520 37,000  Level FlightAware ADS-B
Sun 10:13:01 AM 30.3120 -90.1600 86° East 456 525 37,000 -70 Level FlightAware ADS-B
Sun 10:13:47 AM 30.3190 -90.0550 86° East 461 531 36,900  Descending FlightAware ADS-B
Sun 10:14:29 AM 30.3260 -89.9420 86° East 467 537 37,000 87 Climbing FlightAware ADS-B
Sun 10:14:56 AM 30.3310 -89.8760 85° East 468 539 37,000  Level FlightAware ADS-B
Sun 10:15:36 AM 30.3370 -89.7780 86° East 469 540 37,000  Level FlightAware ADS-B
Sun 10:16:21 AM 30.3430 -89.6650 86° East 468 539 37,000  Level FlightAware ADS-B
Sun 10:17:03 AM 30.3500 -89.5580 86° East 469 540 37,000  Level FlightAware ADS-B
Sun 10:17:43 AM 30.3560 -89.4570 86° East 468 539 37,000  Level FlightAware ADS-B
Sun 10:18:23 AM 30.3620 -89.3580 86° East 465 535 37,000  Level FlightAware ADS-B
Sun 10:19:11 AM 30.3690 -89.2380 86° East 465 535 37,000  Level FlightAware ADS-B
Sun 10:19:51 AM 30.3720 -89.1400 88° East 463 533 37,000  Level FlightAware ADS-B
Sun 10:20:31 AM 30.3740 -89.0410 89° East 463 533 37,000 -73 Level FlightAware ADS-B
Sun 10:21:13 AM 30.3610 -88.9380 98° East 458 527 36,900  Descending FlightAware ADS-B
Sun 10:21:45 AM 30.3430 -88.8640 106° East 458 527 37,000 100 Climbing FlightAware ADS-B
Sun 10:22:13 AM 30.3270 -88.7980 106° East 463 533 37,000  Level FlightAware ADS-B
Sun 10:22:57 AM 30.3020 -88.6900 105° East 467 537 37,000  Level FlightAware ADS-B
Sun 10:23:35 AM 30.2820 -88.5980 104° East 470 541 37,000  Level FlightAware ADS-B
Sun 10:24:05 AM 30.2660 -88.5260 104° East 471 542 37,000  Level FlightAware ADS-B
Sun 10:24:49 AM 30.2380 -88.4200 107° East 468 539 37,000  Level FlightAware ADS-B
Sun 10:25:31 AM 30.2100 -88.3200 108° East 467 537 37,000  Level FlightAware ADS-B
Sun 10:26:11 AM 30.1830 -88.2270 109° East 467 537 37,000  Level FlightAware ADS-B
Sun 10:26:55 AM 30.1520 -88.1210 109° East 467 537 37,000  Level FlightAware ADS-B
Sun 10:27:35 AM 30.1240 -88.0280 109° East 469 540 37,000  Level FlightAware ADS-B
Sun 10:28:26 AM 30.0850 -87.9240 113° Southeast 469 540 37,000 -62 Level FlightAware ADS-B
Sun 10:29:12 AM 30.0420 -87.8040 112° Southeast 480 552 36,900  Descending FlightAware ADS-B
Sun 10:29:52 AM 30.0100 -87.7090 111° Southeast 483 556 37,000 71 Climbing FlightAware ADS-B
Sun 10:30:36 AM 29.9690 -87.6040 114° Southeast 494 568 37,000 71 Level FlightAware ADS-B
Sun 10:31:16 AM 29.9300 -87.5060 115° Southeast 498 573 37,100 75 Climbing FlightAware ADS-B
Sun 10:31:56 AM 29.8920 -87.4100 115° Southeast 499 574 37,100  Level FlightAware ADS-B
Sun 10:32:44 AM 29.8450 -87.2920 115° Southeast 503 579 37,100 -68 Level FlightAware ADS-B
Sun 10:33:24 AM 29.8070 -87.1950 114° Southeast 505 581 37,000 -87 Descending FlightAware ADS-B
Sun 10:33:53 AM 29.7790 -87.1260 115° Southeast 504 580 37,000  Level FlightAware ADS-B
Sun 10:34:32 AM 29.7410 -87.0310 115° Southeast 504 580 37,000  Level FlightAware ADS-B
Sun 10:35:11 AM 29.7090 -86.9490 114° Southeast 503 579 37,000  Level FlightAware ADS-B
Sun 10:36:29 AM 29.6380 -86.7690 114° Southeast 505 581 37,000  Level FlightAware ADS-B
Sun 10:37:08 AM 29.6060 -86.6870 114° Southeast 505 581 37,000  Level FlightAware ADS-B
Sun 10:37:45 AM 29.5760 -86.6100 114° Southeast 505 581 37,000  Level FlightAware ADS-B
Sun 10:38:48 AM 29.5260 -86.4790 114° Southeast 505 581 37,000  Level FlightAware ADS-B
Sun 10:39:12 AM 29.5060 -86.4290 115° Southeast 505 581 37,000  Level FlightAware ADS-B
Sun 10:40:14 AM 29.4560 -86.2990 114° Southeast 505 581 37,000  Level FlightAware ADS-B
Sun 10:40:50 AM 29.4270 -86.2240 114° Southeast 505 581 37,000  Level FlightAware ADS-B
Sun 10:41:36 AM 29.3900 -86.1290 114° Southeast 505 581 37,000  Level FlightAware ADS-B
Sun 10:42:15 AM 29.3580 -86.0470 114° Southeast 505 581 37,000  Level FlightAware ADS-B
Sun 10:43:15 AM 29.3100 -85.9230 114° Southeast 505 581 37,000  Level FlightAware ADS-B
Sun 10:43:49 AM 29.2820 -85.8520 114° Southeast 505 581 37,000  Level FlightAware ADS-B
Sun 10:44:36 AM 29.2440 -85.7540 114° Southeast 505 581 37,000  Level FlightAware ADS-B
Sun 10:45:01 AM 29.2240 -85.7020 114° Southeast 505 581 37,000  Level FlightAware ADS-B
Sun 10:49:05 AM 28.9030 -84.9830 117° Southeast 492 566 37,000  Level FlightAware ADS-B
Sun 10:49:52 AM 28.8690 -84.9000 115° Southeast 492 566 37,000  Level FlightAware ADS-B
Sun 10:50:31 AM 28.8170 -84.7830 117° Southeast 498 573 37,000  Level FlightAware ADS-B
Sun 10:51:12 AM 28.7770 -84.6900 116° Southeast 499 574 37,000  Level FlightAware ADS-B
Sun 10:51:55 AM 28.7310 -84.5830 116° Southeast 503 579 37,000 71 Level FlightAware ADS-B
Sun 10:52:36 AM 28.6900 -84.4860 116° Southeast 502 578 37,100  Climbing FlightAware ADS-B
Sun 10:53:07 AM 28.6580 -84.4120 116° Southeast 503 579 37,000 -90 Descending FlightAware ADS-B
Sun 10:53:43 AM 28.6220 -84.3310 117° Southeast 501 577 37,000  Level FlightAware ADS-B
Sun 10:54:13 AM 28.5970 -84.2700 115° Southeast 501 577 37,000  Level FlightAware ADS-B
Sun 10:54:59 AM 28.5440 -84.1490 116° Southeast 498 573 37,000  Level FlightAware ADS-B
Sun 10:55:41 AM 28.5070 -84.0650 117° Southeast 497 572 37,000  Level FlightAware ADS-B
Sun 10:56:21 AM 28.4600 -83.9570 116° Southeast 493 567 37,000  Level FlightAware ADS-B
Sun 10:57:05 AM 28.4010 -83.8670 127° Southeast 486 559 37,000  Level FlightAware ADS-B
Sun 10:57:47 AM 28.3430 -83.7830 128° Southeast 488 562 37,000 -828 Level FlightAware ADS-B
Sun 10:58:32 AM 28.2820 -83.6930 128° Southeast 481 554 35,800 -1,950 Descending FlightAware ADS-B
Sun 10:59:07 AM 28.2330 -83.6220 128° Southeast 479 551 34,400 -2,354 Descending FlightAware ADS-B
Sun 10:59:51 AM 28.1720 -83.5340 128° Southeast 473 544 32,700 -2,087 Descending FlightAware ADS-B
Sun 11:00:16 AM 28.1430 -83.4920 128° Southeast 469 540 32,000 -915 Descending FlightAware ADS-B
Sun 11:00:50 AM 28.1070 -83.4400 128° Southeast 469 540 31,800 -2,182 Descending FlightAware ADS-B
Sun 11:01:33 AM 28.0390 -83.3420 128° Southeast 448 516 29,200 -3,042 Descending FlightAware ADS-B
Sun 11:02:01 AM 28.0050 -83.2940 129° Southeast 444 511 28,200 -2,049 Descending FlightAware ADS-B
Sun 11:02:55 AM 27.9440 -83.1880 123° Southeast 432 497 26,400 -1,768 Descending FlightAware ADS-B
Sun 11:03:36 AM 27.9130 -83.1030 112° Southeast 425 489 25,400 -1,390 Descending FlightAware ADS-B
Sun 11:04:17 AM 27.8940 -83.0140 104° East 423 487 24,500 -1,256 Descending FlightAware ADS-B
Sun 11:05:02 AM 27.8810 -82.9190 99° East 418 481 23,600 -1,047 Descending FlightAware ADS-B
Sun 11:05:43 AM 27.8690 -82.8290 99° East 408 470 23,000 -424 Descending FlightAware ADS-B
Sun 11:06:27 AM 27.8550 -82.7350 100° East 411 473 23,000  Level FlightAware ADS-B
Sun 11:07:03 AM 27.8450 -82.6590 98° East 411 473 23,000  Level FlightAware ADS-B
Sun 11:07:38 AM 27.8340 -82.5870 100° East 412 474 23,000 -237 Level FlightAware ADS-B
Sun 11:08:19 AM 27.8360 -82.5000 88° East 415 478 22,700 -878 Descending FlightAware ADS-B
Sun 11:09:00 AM 27.8630 -82.4160 70° East 411 473 21,800 -1,643 Descending FlightAware ADS-B
Sun 11:09:43 AM 27.8900 -82.3300 70° East 401 461 20,400 -1,880 Descending FlightAware ADS-B
Sun 11:10:23 AM 27.9140 -82.2510 71° East 393 452 19,200 -1,846 Descending FlightAware ADS-B
Sun 11:11:40 AM 27.9550 -82.1160 71° East 382 440 16,800 -1,951 Descending FlightAware ADS-B
Sun 11:12:26 AM 27.9850 -82.0200 70° East 367 422 15,200 -1,931 Descending FlightAware ADS-B
Sun 11:13:07 AM 28.0170 -81.9510 62° Northeast 358 412 14,000 -1,663 Descending FlightAware ADS-B
Sun 11:13:49 AM 28.0510 -81.8830 60° Northeast 347 399 12,900 -1,341 Descending FlightAware ADS-B
Sun 11:14:32 AM 28.0830 -81.8160 62° Northeast 348 400 12,100 -1,024 Descending FlightAware ADS-B
Sun 11:15:11 AM 28.1130 -81.7560 60° Northeast 340 391 11,500 -900 Descending FlightAware ADS-B
Sun 11:15:52 AM 28.1510 -81.6950 55° Northeast 335 386 10,900 -929 Descending FlightAware ADS-B
Sun 11:16:35 AM 28.1880 -81.6350 55° Northeast 310 357 10,200 -880 Descending FlightAware ADS-B
Sun 11:17:07 AM 28.2150 -81.5930 54° Northeast 297 342 9,800 -814 Descending FlightAware ADS-B
Sun 11:17:34 AM 28.2340 -81.5620 55° Northeast 292 336 9,400 -492 Descending FlightAware ADS-B
Sun 11:18:08 AM 28.2580 -81.5250 54° Northeast 292 336 9,300 -85 Descending FlightAware ADS-B
Sun 11:18:45 AM 28.2830 -81.4860 54° Northeast 292 336 9,300  Level FlightAware ADS-B
Sun 11:19:09 AM 28.2990 -81.4600 55° Northeast 292 336 9,300  Level FlightAware ADS-B
Sun 11:19:19 AM 28.3060 -81.4500 52° Northeast 292 336 9,300 -1,071 Level FlightAware ADS-B
Sun 11:19:37 AM 28.3300 -81.4260 41° Northeast 250 288 8,800 -682 Descending FlightAware ADS-B
Sun 11:20:03 AM 28.3540 -81.4150 22° Northeast 250 288 8,800  Level FlightAware ADS-B
Sun 11:20:15 AM 28.3650 -81.4100 22° Northeast 250 288 8,800  Level FlightAware ADS-B
Sun 11:20:49 AM 28.3960 -81.3970 20° North 250 288 8,800  Level FlightAware ADS-B
Sun 11:21:13 AM 28.4180 -81.3870 22° Northeast 250 288 8,800  Level FlightAware ADS-B
Sun 11:21:25 AM 28.4290 -81.3820 22° Northeast 250 288 8,800 -1,087 Level FlightAware ADS-B
Sun 11:22:21 AM 28.4090 -81.4240 242° Southwest 8,200 -1,190 Descending FlightAware ADS-B
Sun 11:23:31 AM 28.5350 -81.4240 360° North 209 241 6,300 -1,533 Descending FlightAware ADS-B
Sun 11:23:51 AM 28.5550 -81.4240 360° North 210 242 5,900 -1,100 Descending FlightAware ADS-B
Sun 11:24:31 AM 28.5900 -81.4240 360° North 208 239 5,200 -750 Descending FlightAware ADS-B
Sun 11:24:55 AM 28.5960 -81.4240 360° North 208 239 5,100 -600 Descending FlightAware ADS-B
Sun 11:25:41 AM 28.6340 -81.4240 360° North 202 232 4,500 -929 Descending FlightAware ADS-B
Sun 11:26:19 AM 28.6600 -81.3930 46° Northeast 189 217 3,800 -878 Descending FlightAware ADS-B
Sun 11:27:03 AM 28.6580 -81.3420 93° East 173 199 3,300 -610 Descending FlightAware ADS-B
Sun 11:27:18 AM 28.6440 -81.3350 156° South 175 201 3,200 -400 Descending FlightAware ADS-B
Sun 11:27:33 AM 28.6340 -81.3310 161° South 176 203 3,100 -400 Descending FlightAware ADS-B
Sun 11:28:03 AM 28.6090 -81.3290 176° South 175 201 2,900 -533 Descending FlightAware ADS-B
Sun 11:28:18 AM 28.5980 -81.3290 180° South 175 201 2,700 -585 Descending FlightAware ADS-B
Sun 11:28:44 AM 28.5840 -81.3280 176° South 173 199 2,500 -600 Descending FlightAware ADS-B
Sun 11:29:08 AM 28.5720 -81.3280 180° South 174 200 2,200 -682 Descending FlightAware ADS-B
Sun 11:29:28 AM 28.5610 -81.3280 180° South 173 199 2,000 -667 Descending FlightAware ADS-B
Sun 11:29:53 AM 28.5470 -81.3280 180° South 167 192 1,700 -295 Descending FlightAware ADS-B
Sun 11:30:29 AM 28.5270 -81.3280 180° South 166 191 1,700  Level FlightAware ADS-B

Login

Don't have an account? Register now (free) for customized features, flight alerts, and more!